Time;durP1;ratioP1;P1;durP2;ratioP2;P2;SDS_P1;SDS_P2;PMS_P1;PMS_P2;Temp;Humidity;BMP_temperature;BMP_pressure;BME280_temperature;BME280_humidity;BME280_pressure;Samples;Min_cycle;Max_cycle;Signal;HPM_P1;HPM_P2
2023/04/08 00:00:51;;;;;;;5.32;3.50;;;11.40;99.90;;;;;;5054752;28;20025;-69
2023/04/08 00:03:18;;;;;;;6.45;3.45;;;11.50;99.90;;;;;;5054578;28;20025;-70
2023/04/08 00:05:44;;;;;;;9.70;3.80;;;11.20;99.90;;;;;;5054623;28;20097;-70
2023/04/08 00:08:10;;;;;;;6.28;3.55;;;11.20;99.90;;;;;;5036358;28;20031;-70
2023/04/08 00:10:36;;;;;;;9.05;3.90;;;11.10;99.90;;;;;;5054532;28;20048;-70
2023/04/08 00:13:03;;;;;;;7.53;4.27;;;11.10;99.90;;;;;;5054165;28;20029;-70
2023/04/08 00:15:29;;;;;;;8.10;3.83;;;11.10;99.90;;;;;;5054185;28;20021;-69
2023/04/08 00:17:56;;;;;;;5.32;3.65;;;11.00;99.90;;;;;;5053773;28;20110;-69
2023/04/08 00:20:24;;;;;;;7.53;3.60;;;11.10;99.90;;;;;;5054280;28;20021;-69
2023/04/08 00:22:50;;;;;;;10.27;3.85;;;11.10;99.90;;;;;;5054256;28;20571;-70
2023/04/08 00:25:17;;;;;;;7.93;4.00;;;11.10;99.90;;;;;;5053904;28;20084;-69
2023/04/08 00:27:43;;;;;;;6.82;3.40;;;11.10;99.90;;;;;;5053883;28;20036;-69
2023/04/08 00:30:10;;;;;;;9.13;3.70;;;11.10;99.90;;;;;;5053909;28;20075;-71
2023/04/08 00:32:36;;;;;;;8.02;4.05;;;11.10;99.90;;;;;;5054040;28;20024;-70
2023/04/08 00:35:03;;;;;;;;;;;11.00;99.90;;;;;;5053568;28;20029;-71
2023/04/08 00:37:30;;;;;;;7.13;3.80;;;10.90;99.90;;;;;;5053430;28;20338;-70
2023/04/08 00:39:56;;;;;;;;;;;10.90;99.90;;;;;;5054209;28;20538;-70
2023/04/08 00:42:23;;;;;;;10.80;3.77;;;10.80;99.90;;;;;;5053260;28;19913;-69
2023/04/08 00:44:49;;;;;;;10.90;3.63;;;10.80;99.90;;;;;;5052695;28;20518;-71
2023/04/08 00:47:16;;;;;;;7.13;3.90;;;10.80;99.90;;;;;;5053648;28;20373;-70
2023/04/08 00:49:42;;;;;;;9.10;3.83;;;10.70;99.90;;;;;;5051850;28;20101;-70
2023/04/08 00:52:09;;;;;;;5.65;3.80;;;10.80;99.90;;;;;;5053249;28;20025;-70
2023/04/08 00:54:37;;;;;;;6.68;3.88;;;10.80;99.90;;;;;;5053221;28;20145;-69
2023/04/08 00:57:04;;;;;;;6.68;4.03;;;10.70;99.90;;;;;;5053079;28;20017;-70
2023/04/08 00:59:31;;;;;;;6.25;3.70;;;10.60;99.90;;;;;;5053252;28;20032;-69
2023/04/08 01:02:26;;;;;;;9.00;4.20;;;10.50;99.90;;;;;;5053251;28;20021;-69
2023/04/08 01:04:55;;;;;;;8.88;4.00;;;10.50;99.90;;;;;;5035097;28;20391;-70
2023/04/08 01:07:45;;;;;;;10.07;4.13;;;10.40;99.90;;;;;;5053009;28;20120;-70
2023/04/08 01:10:23;;;;;;;7.50;3.83;;;10.50;99.90;;;;;;5051024;28;20035;-67
2023/04/08 01:12:56;;;;;;;5.95;3.50;;;10.40;99.90;;;;;;5015255;28;20434;-68
2023/04/08 01:15:25;;;;;;;8.27;3.78;;;10.50;99.90;;;;;;5033287;28;20026;-68
2023/04/08 01:17:56;;;;;;;7.90;4.30;;;10.50;99.90;;;;;;5014662;28;20053;-69
2023/04/08 01:20:25;;;;;;;6.65;4.00;;;10.60;99.90;;;;;;5050407;28;20059;-68
2023/04/08 01:23:02;;;;;;;8.10;4.30;;;10.60;99.90;;;;;;5034708;28;20064;-69
2023/04/08 01:25:33;;;;;;;13.23;4.05;;;10.60;99.90;;;;;;5052999;28;20135;-69
2023/04/08 01:28:09;;;;;;;8.40;4.00;;;10.50;99.90;;;;;;5052702;28;20029;-69
2023/04/08 01:30:39;;;;;;;5.93;3.75;;;10.40;99.90;;;;;;5052702;28;20025;-67
2023/04/08 01:33:06;;;;;;;8.60;3.80;;;10.40;99.90;;;;;;5052890;28;20028;-68
2023/04/08 01:35:32;;;;;;;6.38;3.47;;;10.50;99.90;;;;;;5052650;28;20021;-69
2023/04/08 01:38:01;;;;;;;13.95;3.97;;;10.40;99.90;;;;;;5034567;28;20036;-69
2023/04/08 01:40:28;;;;;;;5.38;3.78;;;10.40;99.90;;;;;;5052606;28;20021;-69
2023/04/08 01:42:56;;;;;;;5.30;3.92;;;10.40;99.90;;;;;;5052488;28;20032;-68
2023/04/08 01:45:24;;;;;;;6.50;3.80;;;10.40;99.90;;;;;;5052410;28;20033;-69
2023/04/08 01:47:51;;;;;;;6.05;4.00;;;10.40;99.90;;;;;;5052540;28;20029;-69
2023/04/08 01:50:18;;;;;;;6.97;4.03;;;10.40;99.90;;;;;;5052736;28;20073;-69
2023/04/08 01:52:47;;;;;;;6.70;3.47;;;10.50;99.90;;;;;;5052248;28;20040;-68
2023/04/08 01:55:13;;;;;;;5.72;3.78;;;10.40;99.90;;;;;;5052588;28;20025;-69
2023/04/08 01:57:43;;;;;;;7.68;4.03;;;10.30;99.90;;;;;;5052086;28;20024;-69
2023/04/08 02:00:12;;;;;;;8.52;4.20;;;10.20;99.90;;;;;;5052618;28;20024;-68
2023/04/08 02:02:42;;;;;;;6.70;4.10;;;10.20;99.90;;;;;;5052238;28;20021;-69
2023/04/08 02:05:08;;;;;;;6.05;3.75;;;10.20;99.90;;;;;;5052483;28;20136;-69
2023/04/08 02:07:35;;;;;;;8.52;3.80;;;10.10;99.90;;;;;;5052271;28;20115;-68
2023/04/08 02:10:02;;;;;;;6.55;3.67;;;10.10;99.90;;;;;;5033861;28;20461;-69
2023/04/08 02:12:28;;;;;;;7.50;4.28;;;10.10;99.90;;;;;;5051674;28;20029;-68
2023/04/08 02:14:56;;;;;;;8.73;3.93;;;10.00;99.90;;;;;;5051978;28;20025;-69
2023/04/08 02:17:49;;;;;;;5.70;3.53;;;10.00;99.90;;;;;;5051919;28;20021;-69
2023/04/08 02:20:32;;;;;;;6.18;3.42;;;9.90;99.90;;;;;;5051614;28;20127;-68
2023/04/08 02:23:08;;;;;;;6.13;3.55;;;9.90;99.90;;;;;;5051964;28;20072;-67
2023/04/08 02:25:42;;;;;;;6.72;3.90;;;10.00;99.90;;;;;;5051532;28;20064;-68
2023/04/08 02:28:10;;;;;;;7.22;4.00;;;9.90;99.90;;;;;;5051370;28;20499;-69
2023/04/08 02:30:40;;;;;;;6.30;4.10;;;9.90;99.90;;;;;;5051482;28;20043;-68
2023/04/08 02:33:07;;;;;;;6.82;4.10;;;9.80;99.90;;;;;;5051396;28;20486;-69
2023/04/08 02:35:35;;;;;;;5.68;3.70;;;9.80;99.90;;;;;;5051629;28;20372;-68
2023/04/08 02:38:01;;;;;;;9.00;3.90;;;9.80;99.90;;;;;;5051335;28;20057;-69
2023/04/08 02:40:29;;;;;;;7.22;3.88;;;9.80;99.90;;;;;;5051172;28;20025;-68
2023/04/08 02:42:55;;;;;;;7.13;4.03;;;9.80;99.90;;;;;;5051010;28;20115;-67
2023/04/08 02:45:24;;;;;;;4.88;3.75;;;9.80;99.90;;;;;;5051231;28;20032;-68
2023/04/08 02:47:50;;;;;;;8.95;3.83;;;9.90;99.90;;;;;;5051052;28;20067;-66
2023/04/08 02:50:16;;;;;;;6.53;3.07;;;9.90;99.90;;;;;;5051371;28;20071;-67
2023/04/08 02:52:43;;;;;;;9.10;3.60;;;10.00;99.90;;;;;;5030906;28;20676;-67
2023/04/08 02:55:10;;;;;;;;;;;10.00;99.90;;;;;;5050332;28;20047;-67
2023/04/08 02:57:38;;;;;;;8.20;3.90;;;10.10;99.90;;;;;;5049233;28;19905;-67
2023/04/08 03:00:05;;;;;;;9.52;3.80;;;10.20;99.90;;;;;;5032821;28;20051;-68
2023/04/08 03:02:31;;;;;;;6.47;3.30;;;10.20;99.90;;;;;;5049385;28;20540;-66
2023/04/08 03:04:58;;;;;;;5.22;3.28;;;10.20;99.90;;;;;;5049624;28;20107;-68
2023/04/08 03:07:25;;;;;;;6.32;3.13;;;10.10;99.90;;;;;;5050184;28;20478;-65
2023/04/08 03:09:55;;;;;;;7.07;3.83;;;10.10;99.90;;;;;;5050888;28;20020;-65
2023/04/08 03:12:26;;;;;;;6.78;3.50;;;10.00;99.90;;;;;;5048715;28;20415;-68
2023/04/08 03:14:53;;;;;;;8.43;3.45;;;10.00;99.90;;;;;;5051797;28;20120;-67
2023/04/08 03:17:19;;;;;;;5.85;3.65;;;10.00;99.90;;;;;;5051813;28;20035;-67
2023/04/08 03:19:45;;;;;;;6.67;3.67;;;10.00;99.90;;;;;;5051663;28;20037;-68
2023/04/08 03:22:13;;;;;;;10.95;3.65;;;10.00;99.90;;;;;;5051507;28;20021;-68
2023/04/08 03:24:39;;;;;;;5.53;3.40;;;9.90;99.90;;;;;;5052013;28;20103;-68
2023/04/08 03:27:07;;;;;;;4.93;2.97;;;10.00;99.90;;;;;;5051548;28;20505;-67
2023/04/08 03:29:33;;;;;;;4.55;2.83;;;9.90;99.90;;;;;;5052204;28;20101;-69
2023/04/08 03:31:59;;;;;;;10.53;3.77;;;9.90;99.90;;;;;;5033704;28;20059;-66
2023/04/08 03:34:25;;;;;;;9.30;3.28;;;9.80;99.90;;;;;;5051988;28;20048;-65
2023/04/08 03:36:51;;;;;;;10.53;3.97;;;9.80;99.90;;;;;;5033903;28;20441;-67
2023/04/08 03:39:18;;;;;;;5.78;3.30;;;9.80;99.90;;;;;;5051977;28;20369;-68
2023/04/08 03:41:44;;;;;;;6.57;3.58;;;9.80;99.90;;;;;;5051396;28;20178;-68
2023/04/08 03:44:10;;;;;;;4.67;3.47;;;9.80;99.90;;;;;;5051650;28;20029;-67
2023/04/08 03:46:36;;;;;;;10.15;3.63;;;9.70;99.90;;;;;;5051966;28;20043;-68
2023/04/08 03:49:02;;;;;;;6.45;3.58;;;9.50;99.90;;;;;;5052000;28;20024;-68
2023/04/08 03:51:29;;;;;;;7.50;3.85;;;9.50;99.90;;;;;;5051495;28;20099;-68
2023/04/08 03:53:55;;;;;;;5.00;3.75;;;9.40;99.90;;;;;;5051488;28;20052;-68
2023/04/08 03:56:21;;;;;;;7.80;3.70;;;9.40;99.90;;;;;;5051727;28;20017;-68
2023/04/08 03:58:47;;;;;;;7.32;4.15;;;9.40;99.90;;;;;;5033478;28;20416;-68
2023/04/08 04:01:13;;;;;;;5.50;3.65;;;9.40;99.90;;;;;;5051360;28;20017;-68
2023/04/08 04:03:39;;;;;;;9.98;3.75;;;9.40;99.90;;;;;;5033287;28;20025;-69
2023/04/08 04:06:05;;;;;;;10.50;4.00;;;9.50;99.90;;;;;;5051237;28;20048;-65
2023/04/08 04:08:31;;;;;;;6.03;3.88;;;9.50;99.90;;;;;;5051745;28;20029;-68
2023/04/08 04:10:59;;;;;;;5.68;3.20;;;9.40;99.90;;;;;;5051315;28;20049;-69
2023/04/08 04:13:25;;;;;;;6.32;3.83;;;9.40;99.90;;;;;;5051173;28;20029;-68
2023/04/08 04:15:51;;;;;;;6.28;3.97;;;9.40;99.90;;;;;;5051241;28;20021;-68
2023/04/08 04:18:17;;;;;;;7.00;3.55;;;9.40;99.90;;;;;;5051453;28;20045;-67
2023/04/08 04:20:43;;;;;;;7.10;3.50;;;9.30;99.90;;;;;;5051780;28;20119;-67
2023/04/08 04:23:09;;;;;;;8.05;3.45;;;9.20;99.90;;;;;;5051767;28;20029;-68
2023/04/08 04:25:38;;;;;;;10.90;3.87;;;9.30;99.90;;;;;;5053118;28;20021;-67
2023/04/08 04:28:04;;;;;;;5.93;3.95;;;9.20;99.90;;;;;;5055233;28;20025;-68
2023/04/08 04:30:30;;;;;;;7.87;3.60;;;9.20;99.90;;;;;;5055361;28;20021;-69
2023/04/08 04:32:57;;;;;;;5.45;3.65;;;9.30;99.90;;;;;;5055695;28;20025;-67
2023/04/08 04:35:23;;;;;;;7.83;3.40;;;9.20;99.90;;;;;;5055518;28;20052;-68
2023/04/08 04:37:50;;;;;;;9.13;4.25;;;9.20;99.90;;;;;;5055112;28;20017;-68
2023/04/08 04:40:16;;;;;;;6.00;4.05;;;9.20;99.90;;;;;;5054993;28;20029;-69
2023/04/08 04:42:42;;;;;;;5.97;3.57;;;9.20;99.90;;;;;;5054896;28;20110;-67
2023/04/08 04:45:09;;;;;;;9.05;4.35;;;9.30;99.90;;;;;;5055117;28;20037;-69
2023/04/08 04:47:35;;;;;;;8.07;3.42;;;9.30;99.90;;;;;;5054810;28;20036;-67
2023/04/08 04:50:01;;;;;;;5.90;3.77;;;9.30;99.90;;;;;;5054879;28;20104;-68
2023/04/08 04:52:28;;;;;;;4.55;3.30;;;9.40;99.90;;;;;;5055221;28;20055;-68
2023/04/08 04:54:56;;;;;;;10.30;4.80;;;9.40;99.90;;;;;;5054718;28;20104;-69
2023/04/08 04:57:22;;;;;;;5.53;3.33;;;9.60;99.90;;;;;;5054515;28;20021;-68
2023/04/08 04:59:48;;;;;;;7.18;3.45;;;9.50;99.90;;;;;;5054805;28;20021;-68
2023/04/08 05:02:14;;;;;;;5.90;4.05;;;9.50;99.90;;;;;;5055048;28;20052;-68
2023/04/08 05:04:40;;;;;;;6.90;4.30;;;9.50;99.90;;;;;;5054547;28;20025;-67
2023/04/08 05:07:06;;;;;;;6.88;3.53;;;9.60;99.90;;;;;;5053864;28;20342;-68
2023/04/08 05:09:32;;;;;;;5.35;3.58;;;9.60;99.90;;;;;;5053533;28;20499;-68
2023/04/08 05:11:59;;;;;;;5.53;3.75;;;9.50;99.90;;;;;;5054258;28;20493;-69
2023/04/08 05:14:27;;;;;;;9.23;3.72;;;9.50;99.90;;;;;;5054742;28;20063;-69
2023/04/08 05:16:53;;;;;;;6.40;4.00;;;9.50;99.90;;;;;;5054381;28;20138;-68
2023/04/08 05:19:19;;;;;;;9.82;5.13;;;9.50;99.90;;;;;;5054108;28;20084;-68
2023/04/08 05:21:45;;;;;;;6.75;4.13;;;9.50;99.90;;;;;;5054133;28;20104;-67
2023/04/08 05:24:11;;;;;;;5.72;4.10;;;9.50;99.90;;;;;;5054450;28;20398;-68
2023/04/08 05:26:37;;;;;;;4.70;3.40;;;9.50;99.90;;;;;;5054268;28;20163;-68
2023/04/08 05:29:03;;;;;;;11.20;3.80;;;10.10;99.90;;;;;;5054044;28;20031;-67
2023/04/08 05:31:29;;;;;;;5.23;3.00;;;10.70;99.90;;;;;;5035778;28;20065;-68
2023/04/08 05:33:56;;;;;;;8.50;3.58;;;11.80;99.90;;;;;;5052918;28;20032;-69
2023/04/08 05:36:22;;;;;;;5.57;3.07;;;12.70;99.90;;;;;;5053441;28;20021;-68
2023/04/08 05:38:48;;;;;;;7.32;3.20;;;13.30;99.90;;;;;;5053729;28;20159;-68
2023/04/08 05:41:14;;;;;;;6.70;2.90;;;14.20;99.90;;;;;;5053731;28;20044;-67
2023/04/08 05:43:40;;;;;;;6.50;2.90;;;14.40;99.90;;;;;;5049822;28;20025;-70
2023/04/08 05:46:07;;;;;;;8.50;2.80;;;14.30;99.90;;;;;;5052822;28;20090;-69
2023/04/08 05:48:34;;;;;;;5.28;2.75;;;15.20;99.90;;;;;;5053254;28;20503;-70
2023/04/08 05:51:01;;;;;;;6.00;2.60;;;16.10;99.90;;;;;;5053210;28;20021;-70
2023/04/08 05:53:27;;;;;;;6.00;2.70;;;16.40;99.90;;;;;;5053398;28;20104;-70
2023/04/08 05:55:53;;;;;;;8.00;2.40;;;16.80;99.90;;;;;;5053789;28;20072;-69
2023/04/08 05:58:19;;;;;;;5.38;2.38;;;17.00;99.90;;;;;;5035242;28;20041;-69
2023/04/08 06:00:45;;;;;;;7.60;2.80;;;17.40;99.90;;;;;;5035104;28;20035;-69
2023/04/08 06:03:11;;;;;;;4.47;2.30;;;17.50;99.90;;;;;;5053571;28;20103;-70
2023/04/08 06:05:37;;;;;;;8.98;2.60;;;17.10;99.90;;;;;;5053060;28;20104;-70
2023/04/08 06:08:04;;;;;;;4.25;2.55;;;17.00;99.90;;;;;;5053172;28;20059;-70
2023/04/08 06:10:30;;;;;;;5.88;2.60;;;17.60;99.90;;;;;;5053197;28;20025;-69
2023/04/08 06:12:56;;;;;;;6.60;2.45;;;18.40;99.90;;;;;;5052928;28;20078;-70
2023/04/08 06:15:22;;;;;;;6.60;3.00;;;18.40;99.90;;;;;;5052750;28;20025;-70
2023/04/08 06:17:48;;;;;;;5.47;2.53;;;18.20;99.90;;;;;;5053213;28;20048;-70
2023/04/08 06:20:14;;;;;;;6.97;3.20;;;18.40;99.90;;;;;;5035119;28;20025;-68
2023/04/08 06:22:40;;;;;;;6.95;2.30;;;18.70;99.90;;;;;;5035044;28;20021;-70
2023/04/08 06:25:06;;;;;;;10.63;3.20;;;18.80;99.90;;;;;;5052927;28;20366;-68
2023/04/08 06:27:32;;;;;;;4.93;2.40;;;20.00;99.90;;;;;;5053101;28;20048;-70
2023/04/08 06:29:58;;;;;;;5.30;2.40;;;19.60;99.90;;;;;;5052987;28;20098;-69
2023/04/08 06:32:24;;;;;;;5.28;2.20;;;20.10;99.90;;;;;;5034982;28;20476;-69
2023/04/08 06:34:50;;;;;;;7.78;2.45;;;20.40;99.90;;;;;;5052745;28;20029;-70
2023/04/08 06:37:16;;;;;;;3.53;2.20;;;21.20;99.90;;;;;;5052815;28;20025;-69
2023/04/08 06:39:43;;;;;;;4.63;2.20;;;22.10;99.90;;;;;;5052863;28;20025;-70
2023/04/08 06:42:09;;;;;;;;;;;22.60;99.90;;;;;;5034980;28;20025;-70
2023/04/08 06:44:35;;;;;;;;;;;22.70;99.90;;;;;;5053378;28;19904;-69
2023/04/08 06:47:01;;;;;;;3.22;1.70;;;22.30;99.90;;;;;;5052401;28;19917;-69
2023/04/08 06:49:27;;;;;;;7.50;2.10;;;22.60;99.90;;;;;;5050919;28;20070;-70
2023/04/08 06:51:54;;;;;;;4.32;2.00;;;23.20;99.90;;;;;;5052627;28;20477;-69
2023/04/08 06:54:20;;;;;;;5.82;1.92;;;24.20;99.90;;;;;;5052400;28;20039;-70
2023/04/08 06:56:46;;;;;;;7.78;1.98;;;24.20;99.90;;;;;;5052766;28;20029;-70
2023/04/08 06:59:12;;;;;;;6.03;1.80;;;24.10;99.90;;;;;;5052580;28;20381;-70
2023/04/08 07:01:38;;;;;;;3.90;1.77;;;24.50;99.90;;;;;;5052389;28;20021;-69
2023/04/08 07:04:04;;;;;;;4.47;1.80;;;25.80;99.90;;;;;;5052760;28;20021;-70
2023/04/08 07:06:30;;;;;;;5.13;1.80;;;25.70;99.90;;;;;;5052832;28;20028;-70
2023/04/08 07:08:56;;;;;;;3.53;1.30;;;24.90;99.90;;;;;;5052535;28;20033;-68
2023/04/08 07:11:22;;;;;;;6.05;1.65;;;25.10;99.90;;;;;;5052604;28;20104;-70
2023/04/08 07:13:48;;;;;;;4.95;1.60;;;24.40;99.90;;;;;;5052171;28;20090;-69
2023/04/08 07:16:14;;;;;;;9.57;1.80;;;24.40;99.90;;;;;;5052713;28;20024;-70
2023/04/08 07:18:41;;;;;;;5.80;1.70;;;24.30;99.90;;;;;;5052086;28;20056;-69
2023/04/08 07:21:08;;;;;;;6.60;1.73;;;26.00;99.90;;;;;;5052085;28;20047;-69
2023/04/08 07:23:34;;;;;;;4.68;2.13;;;27.00;99.90;;;;;;5052574;28;20025;-70
2023/04/08 07:26:06;;;;;;;;;;;26.20;99.90;;;;;;5052314;28;20115;-69
2023/04/08 07:28:32;;;;;;;6.10;2.22;;;23.20;99.90;;;;;;5051988;28;20017;-70
2023/04/08 07:31:10;;;;;;;5.90;2.22;;;23.50;99.90;;;;;;5052358;28;20029;-70
2023/04/08 07:33:37;;;;;;;6.25;2.35;;;22.60;99.90;;;;;;5033873;28;20152;-68
2023/04/08 07:36:04;;;;;;;8.85;2.72;;;21.30;99.90;;;;;;5052351;28;20083;-69
2023/04/08 07:38:30;;;;;;;8.45;2.78;;;19.80;99.90;;;;;;5052125;28;20032;-70
2023/04/08 07:40:56;;;;;;;;;;;18.40;99.90;;;;;;5052234;28;20024;-69
2023/04/08 07:43:22;;;;;;;5.35;1.92;;;17.60;99.90;;;;;;5051699;28;19905;-69
2023/04/08 07:45:48;;;;;;;6.00;2.80;;;17.40;99.90;;;;;;5051877;28;20116;-69
2023/04/08 07:48:15;;;;;;;5.82;2.30;;;17.30;99.90;;;;;;5051679;28;20441;-69
2023/04/08 07:50:41;;;;;;;5.55;2.20;;;17.60;99.90;;;;;;5051586;28;20103;-68
2023/04/08 07:53:08;;;;;;;5.93;2.33;;;17.70;99.90;;;;;;5051065;28;20029;-70
2023/04/08 07:55:38;;;;;;;6.85;3.67;;;17.60;99.90;;;;;;5051387;28;20044;-69
2023/04/08 07:58:04;;;;;;;5.80;2.63;;;17.40;99.90;;;;;;5033201;28;20480;-70
2023/04/08 08:00:31;;;;;;;4.10;2.13;;;16.70;99.90;;;;;;5054462;28;20032;-70
2023/04/08 08:02:57;;;;;;;7.57;2.03;;;16.90;99.90;;;;;;5055107;28;20017;-69
2023/04/08 08:05:24;;;;;;;5.57;2.28;;;17.00;99.90;;;;;;5055481;28;20109;-69
2023/04/08 08:07:50;;;;;;;17.58;9.80;;;17.50;99.90;;;;;;5055122;28;20426;-68
2023/04/08 08:10:16;;;;;;;;;;;17.80;99.90;;;;;;5055856;28;20025;-68
2023/04/08 08:12:42;;;;;;;5.60;1.73;;;17.60;99.90;;;;;;5054842;28;20430;-70
2023/04/08 08:15:09;;;;;;;5.07;1.83;;;17.40;99.90;;;;;;5055489;28;20017;-70
2023/04/08 08:17:35;;;;;;;6.93;1.60;;;17.80;99.90;;;;;;5055240;28;20666;-66
2023/04/08 08:20:03;;;;;;;6.45;1.85;;;18.50;99.90;;;;;;5055669;28;20079;-70
2023/04/08 08:22:29;;;;;;;4.97;2.00;;;19.30;99.90;;;;;;5055355;28;20380;-69
2023/04/08 08:24:58;;;;;;;4.47;2.00;;;19.60;99.90;;;;;;5055247;28;20037;-69
2023/04/08 08:27:25;;;;;;;7.65;2.00;;;20.20;99.90;;;;;;5055062;28;20033;-69
2023/04/08 08:29:51;;;;;;;;;;;20.70;99.90;;;;;;5055825;28;20060;-70
2023/04/08 08:32:17;;;;;;;;;;;20.70;99.90;;;;;;5055300;28;20326;-68
2023/04/08 08:34:46;;;;;;;7.72;2.00;;;20.60;99.90;;;;;;5055449;28;19904;-69
2023/04/08 08:37:12;;;;;;;6.03;1.92;;;20.50;99.90;;;;;;5055227;28;20087;-69
2023/04/08 08:39:38;;;;;;;3.72;1.48;;;20.50;99.90;;;;;;5055407;28;20025;-68
2023/04/08 08:42:04;;;;;;;5.45;1.65;;;19.40;99.90;;;;;;5036719;28;20021;-69
2023/04/08 08:44:30;;;;;;;4.50;1.95;;;18.70;99.90;;;;;;5055173;28;20078;-69
2023/04/08 08:46:56;;;;;;;4.13;1.85;;;18.80;99.90;;;;;;5054741;28;20044;-69
2023/04/08 08:49:22;;;;;;;7.70;2.20;;;19.20;99.90;;;;;;5054638;28;20028;-70
2023/04/08 08:51:51;;;;;;;7.57;2.22;;;19.50;99.90;;;;;;5054521;28;20029;-68
2023/04/08 08:54:17;;;;;;;7.10;2.00;;;19.60;99.90;;;;;;5054261;28;20021;-69
2023/04/08 08:56:43;;;;;;;5.45;2.00;;;19.80;99.90;;;;;;5036331;28;20028;-68
2023/04/08 08:59:09;;;;;;;4.97;1.90;;;20.30;99.90;;;;;;5054272;28;20465;-69
2023/04/08 09:01:37;;;;;;;9.43;2.10;;;20.40;99.90;;;;;;5053691;28;20037;-68
2023/04/08 09:04:18;;;;;;;6.80;1.73;;;20.50;99.90;;;;;;5054645;28;20025;-69
2023/04/08 09:06:45;;;;;;;3.83;1.70;;;20.20;99.90;;;;;;5054112;28;20068;-69
2023/04/08 09:09:12;;;;;;;5.25;1.70;;;20.20;99.90;;;;;;5054035;28;20032;-69
2023/04/08 09:11:42;;;;;;;;;;;20.30;99.90;;;;;;5053829;28;20465;-70
2023/04/08 09:14:22;;;;;;;6.57;1.55;;;20.20;99.90;;;;;;5054019;28;19912;-69
2023/04/08 09:16:49;;;;;;;4.65;1.83;;;20.60;99.90;;;;;;5054218;28;20029;-70
2023/04/08 09:19:15;;;;;;;;;;;20.40;99.90;;;;;;5054401;28;20124;-69
2023/04/08 09:21:42;;;;;;;7.03;1.70;;;20.00;99.90;;;;;;5054438;28;20352;-69
2023/04/08 09:24:25;;;;;;;6.10;1.77;;;19.60;99.90;;;;;;5053872;28;20082;-69
2023/04/08 09:26:51;;;;;;;3.78;1.70;;;19.30;99.90;;;;;;5054401;28;20039;-69
2023/04/08 09:29:17;;;;;;;6.47;1.70;;;19.50;99.90;;;;;;5053822;28;20104;-69
2023/04/08 09:31:45;;;;;;;4.35;1.77;;;19.30;99.90;;;;;;5054330;28;20104;-70
2023/04/08 09:34:16;;;;;;;4.50;2.17;;;18.60;99.90;;;;;;5035749;28;20036;-67
2023/04/08 09:36:43;;;;;;;5.00;2.03;;;18.60;99.90;;;;;;5054057;28;20181;-68
2023/04/08 09:39:09;;;;;;;;;;;18.80;99.90;;;;;;5053846;28;20021;-70
2023/04/08 09:41:37;;;;;;;6.65;2.70;;;18.60;99.90;;;;;;5053913;28;19905;-68
2023/04/08 09:44:08;;;;;;;5.40;1.70;;;18.50;99.90;;;;;;5053613;28;20047;-70
2023/04/08 09:46:49;;;;;;;6.55;2.03;;;18.70;99.90;;;;;;5053921;28;20064;-69
2023/04/08 09:49:32;;;;;;;3.85;1.58;;;18.80;99.90;;;;;;5053644;28;20024;-68
2023/04/08 09:52:10;;;;;;;5.82;2.00;;;18.90;99.90;;;;;;5053528;28;20037;-70
2023/04/08 09:55:00;;;;;;;8.35;2.00;;;19.00;99.90;;;;;;5053824;28;20383;-69
2023/04/08 09:57:40;;;;;;;4.25;1.80;;;19.00;99.90;;;;;;5053210;28;20047;-69
2023/04/08 10:00:11;;;;;;;5.97;1.58;;;19.00;99.90;;;;;;5053896;28;20021;-69
2023/04/08 10:02:57;;;;;;;6.30;1.80;;;19.20;99.90;;;;;;5053744;28;20108;-69
2023/04/08 10:05:23;;;;;;;;;;;18.70;99.90;;;;;;5054102;28;20017;-70
2023/04/08 10:07:51;;;;;;;9.02;2.33;;;18.60;99.90;;;;;;5053156;28;20271;-70
2023/04/08 10:10:18;;;;;;;5.68;2.20;;;18.90;99.90;;;;;;5053076;28;20025;-69
2023/04/08 10:12:45;;;;;;;4.45;1.90;;;19.10;99.90;;;;;;5052791;28;20017;-70
2023/04/08 10:15:31;;;;;;;3.58;1.60;;;19.00;99.90;;;;;;5052980;28;20036;-70
2023/04/08 10:18:03;;;;;;;3.53;1.98;;;18.60;99.90;;;;;;5052729;28;20041;-70
2023/04/08 10:20:35;;;;;;;4.85;2.08;;;18.50;99.90;;;;;;5052932;28;20104;-70
2023/04/08 10:23:08;;;;;;;3.78;1.70;;;18.40;99.90;;;;;;5052251;28;20029;-69
2023/04/08 10:25:36;;;;;;;5.63;1.88;;;18.70;99.90;;;;;;5053027;28;20477;-69
2023/04/08 10:28:22;;;;;;;4.63;1.83;;;18.60;99.90;;;;;;5052933;28;20047;-72
2023/04/08 10:30:48;;;;;;;;;;;18.90;99.90;;;;;;5035046;28;20124;-70
2023/04/08 10:33:19;;;;;;;;;;;19.00;99.90;;;;;;5052889;28;19947;-71
2023/04/08 10:35:53;;;;;;;5.32;1.70;;;18.90;99.90;;;;;;5052998;28;20269;-69
2023/04/08 10:38:20;;;;;;;6.45;1.85;;;18.90;99.90;;;;;;5052999;28;20025;-70
2023/04/08 10:40:47;;;;;;;;;;;18.70;99.90;;;;;;5052825;28;20032;-72
2023/04/08 10:43:14;;;;;;;6.00;2.53;;;18.30;99.90;;;;;;5052224;28;19905;-72
2023/04/08 10:45:43;;;;;;;4.68;1.80;;;18.60;99.90;;;;;;5052475;28;20017;-71
2023/04/08 10:48:27;;;;;;;4.53;2.08;;;18.50;99.90;;;;;;5052656;28;20037;-72
2023/04/08 10:51:00;;;;;;;5.03;2.00;;;18.70;99.90;;;;;;5034628;28;20487;-71
2023/04/08 10:53:35;;;;;;;10.98;2.38;;;18.70;99.90;;;;;;5053278;28;20020;-69
2023/04/08 10:56:16;;;;;;;6.43;1.98;;;18.80;99.90;;;;;;5052768;28;20060;-71
2023/04/08 10:58:58;;;;;;;5.28;2.10;;;19.00;99.90;;;;;;5052372;28;20108;-72
2023/04/08 11:01:24;;;;;;;4.65;1.70;;;19.20;99.90;;;;;;5052281;28;20033;-71
2023/04/08 11:03:51;;;;;;;6.45;1.80;;;19.50;99.90;;;;;;5034507;28;20504;-71
2023/04/08 11:06:18;;;;;;;7.68;2.20;;;19.30;99.90;;;;;;5052883;28;20368;-71
2023/04/08 11:08:52;;;;;;;5.72;2.05;;;19.20;99.90;;;;;;5052411;28;20029;-72
2023/04/08 11:11:18;;;;;;;5.82;1.98;;;19.10;99.90;;;;;;5052368;28;20108;-72
2023/04/08 11:13:45;;;;;;;5.90;1.85;;;19.30;99.90;;;;;;5052273;28;20048;-71
2023/04/08 11:16:12;;;;;;;10.00;2.00;;;19.40;99.90;;;;;;5052539;28;20052;-71
2023/04/08 11:18:38;;;;;;;;;;;19.10;99.90;;;;;;5052712;28;20449;-70
2023/04/08 11:21:08;;;;;;;;;;;19.00;99.90;;;;;;5053211;28;19912;-70
2023/04/08 11:23:34;;;;;;;4.88;1.73;;;19.30;99.90;;;;;;5052341;28;19920;-71
2023/04/08 11:26:00;;;;;;;;;;;19.30;99.90;;;;;;5052760;28;20025;-71
2023/04/08 11:28:27;;;;;;;3.47;1.90;;;19.50;99.90;;;;;;5052633;28;19931;-70
2023/04/08 11:30:53;;;;;;;;;;;19.30;99.90;;;;;;5053172;28;20024;-70
2023/04/08 11:33:20;;;;;;;;;;;19.30;99.90;;;;;;5053594;28;19992;-70
2023/04/08 11:35:50;;;;;;;;;;;19.30;99.90;;;;;;5056495;28;20276;-70
2023/04/08 11:38:16;;;;;;;7.43;2.00;;;19.00;99.90;;;;;;5056978;28;19905;-70
2023/04/08 11:40:53;;;;;;;5.88;1.80;;;19.10;99.90;;;;;;5056316;28;20079;-70
2023/04/08 11:43:19;;;;;;;4.50;1.75;;;19.00;99.90;;;;;;5056350;28;20017;-70
2023/04/08 11:45:45;;;;;;;5.60;2.03;;;18.80;99.90;;;;;;5056698;28;20021;-71
2023/04/08 11:48:13;;;;;;;7.05;1.92;;;18.70;99.90;;;;;;5056639;28;20075;-70
2023/04/08 11:50:40;;;;;;;7.00;2.15;;;18.80;99.90;;;;;;5053865;28;20044;-71
2023/04/08 11:53:20;;;;;;;4.80;2.00;;;18.80;99.90;;;;;;5056269;28;20021;-72
2023/04/08 11:55:47;;;;;;;5.78;2.03;;;18.80;99.90;;;;;;5055933;28;20032;-70
2023/04/08 11:58:14;;;;;;;4.25;1.80;;;18.90;99.90;;;;;;5055637;28;20032;-71
2023/04/08 12:00:42;;;;;;;6.55;2.00;;;19.00;99.90;;;;;;5055231;28;20029;-67
2023/04/08 12:03:09;;;;;;;4.57;2.00;;;19.00;99.90;;;;;;5056199;28;20029;-71
2023/04/08 12:05:35;;;;;;;6.28;2.25;;;19.30;99.90;;;;;;5037676;28;20037;-72
2023/04/08 12:08:01;;;;;;;7.20;1.70;;;19.10;99.90;;;;;;5055327;28;20037;-72
2023/04/08 12:10:27;;;;;;;5.70;1.88;;;19.10;99.90;;;;;;5055661;28;20381;-71
2023/04/08 12:12:53;;;;;;;5.60;1.92;;;19.10;99.90;;;;;;5055435;28;20068;-72
2023/04/08 12:15:19;;;;;;;5.25;2.00;;;19.20;99.90;;;;;;5037511;28;20032;-72
2023/04/08 12:17:45;;;;;;;7.53;2.20;;;18.90;99.90;;;;;;5055338;28;20060;-72
2023/04/08 12:20:12;;;;;;;6.90;1.73;;;18.60;99.90;;;;;;5056407;28;20396;-71
2023/04/08 12:22:39;;;;;;;4.90;1.40;;;18.80;99.90;;;;;;5055844;28;20142;-71
2023/04/08 12:25:05;;;;;;;;;;;19.10;99.90;;;;;;5056680;28;20334;-70
2023/04/08 12:27:34;;;;;;;;;;;19.30;99.90;;;;;;5055982;28;19913;-70
2023/04/08 12:30:01;;;;;;;5.45;1.60;;;19.40;99.90;;;;;;5055651;28;19905;-71
2023/04/08 12:32:28;;;;;;;6.93;1.90;;;19.30;99.90;;;;;;5037658;28;20579;-70
2023/04/08 12:34:54;;;;;;;8.43;2.35;;;18.80;99.90;;;;;;5055370;28;20091;-71
2023/04/08 12:37:22;;;;;;;6.63;1.63;;;18.80;99.90;;;;;;5055665;28;20025;-71
2023/04/08 12:39:48;;;;;;;8.70;2.10;;;18.70;99.90;;;;;;5055848;28;20526;-70
2023/04/08 12:42:15;;;;;;;3.95;1.40;;;18.90;99.90;;;;;;5055353;28;20048;-70
2023/04/08 12:44:41;;;;;;;18.58;2.55;;;18.90;99.90;;;;;;5054969;28;20033;-70
2023/04/08 12:47:07;;;;;;;7.28;1.70;;;19.00;99.90;;;;;;5054283;28;20041;-71
2023/04/08 12:49:33;;;;;;;7.40;1.63;;;19.10;99.90;;;;;;5055211;28;20406;-71
2023/04/08 12:51:59;;;;;;;3.63;1.60;;;19.30;99.90;;;;;;5055416;28;20056;-71
2023/04/08 12:54:25;;;;;;;6.63;1.67;;;19.20;99.90;;;;;;5055179;28;20123;-70
2023/04/08 12:56:52;;;;;;;5.25;1.65;;;19.10;99.90;;;;;;5055541;28;20487;-69
2023/04/08 12:59:18;;;;;;;6.32;1.50;;;19.00;99.90;;;;;;5055052;28;20024;-68